createdAt,value
2018-07-22T00:05:21.889Z,88.80
2018-07-22T00:07:49.722Z,89.60
2018-07-22T00:10:27.643Z,89.30
2018-07-22T00:12:56.042Z,89.20
2018-07-22T00:15:23.930Z,90.10
2018-07-22T00:17:51.969Z,90.20
2018-07-22T00:20:20.403Z,90.50
2018-07-22T00:22:48.373Z,90.60
2018-07-22T00:25:16.809Z,90.60
2018-07-22T00:27:45.202Z,90.30
2018-07-22T00:30:13.120Z,90.50
2018-07-22T00:32:46.846Z,90.50
2018-07-22T00:35:14.720Z,90.90
2018-07-22T00:43:05.173Z,91.10
2018-07-22T00:45:33.077Z,91.30
2018-07-22T00:48:00.918Z,91.30
2018-07-22T00:50:39.317Z,91.40
2018-07-22T00:53:07.500Z,91.70
2018-07-22T00:55:35.391Z,91.70
2018-07-22T00:58:03.601Z,91.90
2018-07-22T01:00:46.114Z,91.90
2018-07-22T01:03:13.989Z,92.00
2018-07-22T01:05:41.918Z,91.90
2018-07-22T01:08:09.644Z,91.80
2018-07-22T01:10:37.590Z,91.80
2018-07-22T01:13:06.504Z,92.00
2018-07-22T01:15:34.543Z,92.00
2018-07-22T01:18:02.275Z,92.10
2018-07-22T01:20:53.435Z,91.90
2018-07-22T01:23:21.379Z,92.10
2018-07-22T01:25:49.240Z,92.10
2018-07-22T01:28:16.964Z,92.10
2018-07-22T01:30:44.812Z,92.10
2018-07-22T01:33:12.665Z,92.30
2018-07-22T01:38:42.979Z,92.50
2018-07-22T01:41:10.973Z,92.60
2018-07-22T01:43:38.824Z,92.70
2018-07-22T01:46:07.037Z,92.70
2018-07-22T01:48:35.018Z,92.80
2018-07-22T01:51:02.825Z,92.80
2018-07-22T01:53:30.709Z,92.60
2018-07-22T01:55:58.688Z,92.70
2018-07-22T01:58:26.641Z,92.80
2018-07-22T02:00:55.190Z,92.80
2018-07-22T02:03:23.138Z,92.80
2018-07-22T02:05:51.068Z,92.70
2018-07-22T02:08:18.920Z,92.80
2018-07-22T02:10:47.586Z,92.80
2018-07-22T02:13:15.491Z,92.40
2018-07-22T02:15:43.477Z,92.10
2018-07-22T02:18:16.233Z,92.40
2018-07-22T02:20:44.072Z,92.40
2018-07-22T02:23:11.884Z,92.40
2018-07-22T02:25:39.770Z,92.20
2018-07-22T02:28:07.640Z,92.20
2018-07-22T02:30:35.451Z,92.50
2018-07-22T02:33:03.217Z,92.80
2018-07-22T02:35:30.894Z,93.00
2018-07-22T02:37:58.888Z,93.00
2018-07-22T02:40:26.644Z,93.00
2018-07-22T02:42:54.551Z,92.70
2018-07-22T02:45:22.393Z,92.40
2018-07-22T02:47:50.235Z,92.10
2018-07-22T02:50:18.128Z,91.60
2018-07-22T02:52:45.973Z,91.60
2018-07-22T02:55:18.333Z,91.80
2018-07-22T02:57:46.214Z,91.60
2018-07-22T03:00:13.997Z,91.80
2018-07-22T03:02:41.842Z,92.30
2018-07-22T03:05:09.731Z,92.10
2018-07-22T03:07:47.166Z,92.20
2018-07-22T03:10:14.899Z,92.20
2018-07-22T03:12:42.727Z,92.30
2018-07-22T03:15:10.426Z,92.30
2018-07-22T03:17:38.242Z,92.30
2018-07-22T03:20:06.181Z,92.70
2018-07-22T03:22:34.006Z,92.60
2018-07-22T03:25:01.856Z,92.50
2018-07-22T03:27:29.698Z,92.10
2018-07-22T03:29:57.470Z,92.30
2018-07-22T03:32:25.297Z,92.80
2018-07-22T03:34:53.175Z,92.70
2018-07-22T03:37:21.066Z,92.80
2018-07-22T03:39:49.161Z,93.10
2018-07-22T03:42:17.019Z,93.20
2018-07-22T03:44:45.255Z,93.30
2018-07-22T03:47:13.229Z,93.30
2018-07-22T03:49:41.056Z,93.40
2018-07-22T03:52:08.912Z,93.30
2018-07-22T03:54:37.045Z,93.10
2018-07-22T03:57:04.860Z,93.00
2018-07-22T03:59:32.606Z,92.90
2018-07-22T04:02:00.513Z,93.00
2018-07-22T04:04:28.369Z,93.10
2018-07-22T04:06:56.133Z,93.20
2018-07-22T04:09:23.914Z,92.80
2018-07-22T04:11:51.745Z,92.80
2018-07-22T04:14:19.933Z,92.90
2018-07-22T04:19:15.431Z,92.70
2018-07-22T04:21:43.378Z,92.70
2018-07-22T04:24:11.232Z,92.60
2018-07-22T04:26:51.412Z,92.70
2018-07-22T04:29:19.256Z,92.90
2018-07-22T04:31:47.176Z,92.80
2018-07-22T04:34:15.038Z,92.90
2018-07-22T04:36:42.764Z,93.10
2018-07-22T04:39:10.719Z,92.80
2018-07-22T04:41:38.494Z,93.00
2018-07-22T04:44:06.339Z,93.00
2018-07-22T04:46:34.086Z,93.10
2018-07-22T04:49:01.867Z,93.00
2018-07-22T04:51:29.737Z,93.10
2018-07-22T04:53:57.603Z,92.80
2018-07-22T04:56:25.370Z,93.00
2018-07-22T04:58:53.321Z,92.90
2018-07-22T05:01:24.646Z,92.90
2018-07-22T05:03:52.584Z,92.20
2018-07-22T05:06:20.547Z,92.00
2018-07-22T05:08:48.493Z,91.90
2018-07-22T05:11:16.326Z,92.20
2018-07-22T05:13:44.147Z,92.80
2018-07-22T05:16:11.969Z,92.90
2018-07-22T05:18:39.804Z,92.80
2018-07-22T05:21:07.616Z,93.00
2018-07-22T05:23:35.352Z,93.20
2018-07-22T05:26:03.214Z,93.00
2018-07-22T05:28:30.964Z,92.60
2018-07-22T05:30:58.933Z,92.30
2018-07-22T05:33:26.746Z,92.40
2018-07-22T05:35:54.876Z,92.30
2018-07-22T05:38:22.923Z,92.30
2018-07-22T05:40:51.809Z,91.80
2018-07-22T05:43:19.889Z,91.20
2018-07-22T05:45:47.751Z,91.10
2018-07-22T05:48:15.553Z,91.20
2018-07-22T05:50:43.233Z,91.20
2018-07-22T05:53:11.074Z,90.90
2018-07-22T05:55:38.808Z,91.20
2018-07-22T05:58:06.647Z,91.20
2018-07-22T06:00:34.475Z,91.40
2018-07-22T06:03:03.119Z,91.10
2018-07-22T06:05:30.888Z,91.20
2018-07-22T06:07:58.530Z,91.00
2018-07-22T06:10:26.598Z,90.80
2018-07-22T06:12:54.446Z,91.10
2018-07-22T06:15:22.245Z,91.90
2018-07-22T06:17:49.996Z,91.60
2018-07-22T06:20:17.886Z,91.10
2018-07-22T06:22:45.647Z,91.20
2018-07-22T06:27:41.231Z,90.00
2018-07-22T06:30:10.159Z,90.00
2018-07-22T06:32:37.991Z,88.90
2018-07-22T06:35:06.088Z,89.40
2018-07-22T06:37:33.987Z,89.80
2018-07-22T06:40:01.934Z,88.30
2018-07-22T06:47:25.105Z,90.40
2018-07-22T06:49:53.025Z,88.60
2018-07-22T06:52:20.876Z,89.20
2018-07-22T06:54:48.757Z,90.20
2018-07-22T06:57:16.622Z,90.80
2018-07-22T06:59:44.565Z,89.10
2018-07-22T07:02:12.532Z,90.00
2018-07-22T07:04:40.275Z,89.70
2018-07-22T07:07:08.295Z,91.00
2018-07-22T07:09:36.141Z,90.50
2018-07-22T07:12:03.988Z,90.00
2018-07-22T07:14:31.870Z,90.30
2018-07-22T07:16:59.776Z,88.80
2018-07-22T07:19:27.691Z,88.30
2018-07-22T07:21:55.611Z,90.00
2018-07-22T07:24:23.500Z,90.10
2018-07-22T07:26:51.450Z,90.20
2018-07-22T07:29:19.223Z,90.20
2018-07-22T07:31:47.114Z,90.20
2018-07-22T07:34:15.059Z,89.90
2018-07-22T07:36:42.954Z,86.60
2018-07-22T07:39:12.204Z,86.20
2018-07-22T07:41:40.221Z,86.90
2018-07-22T07:44:08.289Z,86.90
2018-07-22T07:46:36.203Z,86.00
2018-07-22T07:49:04.113Z,86.90
2018-07-22T07:51:32.074Z,85.30
2018-07-22T07:53:59.935Z,84.30
2018-07-22T07:56:28.086Z,84.30
2018-07-22T07:58:56.378Z,83.20
2018-07-22T08:01:24.330Z,84.00
2018-07-22T08:03:52.376Z,86.60
2018-07-22T08:06:20.330Z,85.10
2018-07-22T08:08:48.137Z,83.10
2018-07-22T08:11:16.123Z,82.30
2018-07-22T08:13:49.234Z,83.10
2018-07-22T08:16:17.289Z,82.30
2018-07-22T08:18:45.127Z,83.10
2018-07-22T08:21:13.049Z,85.20
2018-07-22T08:23:45.085Z,83.70
2018-07-22T08:26:13.115Z,82.60
2018-07-22T08:29:22.090Z,82.90
2018-07-22T08:31:50.198Z,82.20
2018-07-22T08:34:18.354Z,82.60
2018-07-22T08:36:46.813Z,83.50
2018-07-22T08:39:14.998Z,86.10
2018-07-22T08:41:42.890Z,84.50
2018-07-22T08:44:10.686Z,86.20
2018-07-22T08:46:39.874Z,84.60
2018-07-22T08:49:07.718Z,84.60
2018-07-22T08:51:36.376Z,87.00
2018-07-22T08:54:04.247Z,86.30
2018-07-22T08:56:32.729Z,84.60
2018-07-22T08:59:00.600Z,84.00
2018-07-22T09:01:29.239Z,83.40
2018-07-22T09:03:57.150Z,84.20
2018-07-22T09:06:25.657Z,83.80
2018-07-22T09:20:29.286Z,79.80
2018-07-22T09:22:57.228Z,79.50
2018-07-22T09:25:25.109Z,80.70
2018-07-22T09:27:53.084Z,82.30
2018-07-22T09:30:21.080Z,81.60
2018-07-22T09:32:48.928Z,83.00
2018-07-22T09:35:16.833Z,83.70
2018-07-22T09:37:44.905Z,83.50
2018-07-22T09:40:12.741Z,84.10
2018-07-22T09:42:40.698Z,83.60
2018-07-22T09:45:08.559Z,82.70
2018-07-22T09:47:50.243Z,82.00
2018-07-22T09:50:18.185Z,81.60
2018-07-22T09:52:46.209Z,82.40
2018-07-22T09:55:14.179Z,83.70
2018-07-22T09:57:47.129Z,84.70
2018-07-22T10:00:19.487Z,85.10
2018-07-22T10:02:47.401Z,85.40
2018-07-22T10:07:43.418Z,84.80
2018-07-22T10:10:24.463Z,83.40
2018-07-22T10:12:52.617Z,81.40
2018-07-22T10:15:20.841Z,81.80
2018-07-22T10:17:49.242Z,81.40
2018-07-22T10:20:17.092Z,83.40
2018-07-22T10:22:49.003Z,80.00
2018-07-22T10:25:16.900Z,81.80
2018-07-22T10:27:50.974Z,81.60
2018-07-22T10:30:19.028Z,80.90
2018-07-22T10:32:47.025Z,80.70
2018-07-22T10:35:15.004Z,78.60
2018-07-22T10:37:42.920Z,77.40
2018-07-22T10:40:11.594Z,78.10
2018-07-22T10:42:39.471Z,79.70
2018-07-22T10:45:07.445Z,76.90
2018-07-22T10:47:35.440Z,75.70
2018-07-22T10:50:03.581Z,74.60
2018-07-22T10:52:31.517Z,73.60
2018-07-22T10:54:59.522Z,71.70
2018-07-22T10:57:27.590Z,73.90
2018-07-22T10:59:55.546Z,72.60
2018-07-22T11:02:23.632Z,70.20
2018-07-22T11:04:51.462Z,71.60
2018-07-22T11:07:19.520Z,69.00
2018-07-22T11:09:47.480Z,73.10
2018-07-22T11:12:15.501Z,70.60
2018-07-22T11:14:43.465Z,67.00
2018-07-22T11:17:11.426Z,68.00
2018-07-22T11:19:39.378Z,65.40
2018-07-22T11:22:07.488Z,64.50
2018-07-22T11:24:35.525Z,65.20
2018-07-22T11:27:03.989Z,65.70
2018-07-22T11:29:32.124Z,64.60
2018-07-22T11:32:00.131Z,66.70
2018-07-22T11:34:28.142Z,64.30
2018-07-22T11:36:56.057Z,64.40
2018-07-22T11:39:24.023Z,57.50
2018-07-22T11:41:52.219Z,57.90
2018-07-22T11:44:20.199Z,57.10
2018-07-22T11:46:48.081Z,59.30
2018-07-22T11:49:15.872Z,59.50
2018-07-22T11:51:43.758Z,59.70
2018-07-22T11:54:11.558Z,57.80
2018-07-22T11:59:07.317Z,57.80
2018-07-22T12:01:38.344Z,60.00
2018-07-22T12:04:06.380Z,53.80
2018-07-22T12:09:02.095Z,55.60
2018-07-22T12:11:30.355Z,57.60
2018-07-22T12:13:58.694Z,54.00
2018-07-22T12:16:26.694Z,54.60
2018-07-22T12:18:54.654Z,57.80
2018-07-22T12:21:22.780Z,54.00
2018-07-22T12:23:50.844Z,54.90
2018-07-22T12:26:18.906Z,55.20
2018-07-22T12:28:46.834Z,55.30
2018-07-22T12:31:15.017Z,54.30
2018-07-22T12:33:43.071Z,54.10
2018-07-22T12:36:11.009Z,54.70
2018-07-22T12:38:55.090Z,55.80
2018-07-22T12:41:22.996Z,56.90
2018-07-22T12:43:51.001Z,54.00
2018-07-22T12:46:18.893Z,52.50
2018-07-22T12:48:49.137Z,53.60
2018-07-22T12:51:16.901Z,53.00
2018-07-22T12:56:12.816Z,54.50
2018-07-22T12:58:40.905Z,53.30
2018-07-22T13:01:08.771Z,53.20
2018-07-22T13:03:36.813Z,53.20
2018-07-22T13:06:04.764Z,51.80
2018-07-22T13:08:32.784Z,50.60
2018-07-22T13:11:02.086Z,49.30
2018-07-22T13:13:37.206Z,51.70
2018-07-22T13:16:05.419Z,51.60
2018-07-22T13:18:33.399Z,50.70
2018-07-22T13:21:01.356Z,51.40
2018-07-22T13:23:30.269Z,51.50
2018-07-22T13:26:00.169Z,52.20
2018-07-22T13:28:30.376Z,50.90
2018-07-22T13:30:59.462Z,52.70
2018-07-22T13:33:27.500Z,53.00
2018-07-22T13:35:55.517Z,53.60
2018-07-22T13:38:23.493Z,53.60
2018-07-22T13:40:51.392Z,54.20
2018-07-22T13:43:19.214Z,53.70
2018-07-22T13:45:47.256Z,52.30
2018-07-22T13:48:16.319Z,52.90
2018-07-22T13:50:44.536Z,51.00
2018-07-22T13:53:31.033Z,51.60
2018-07-22T13:55:59.375Z,52.00
2018-07-22T13:58:27.489Z,52.70
2018-07-22T14:00:55.521Z,51.00
2018-07-22T14:03:23.609Z,52.50
2018-07-22T14:05:51.621Z,54.30
2018-07-22T14:08:19.588Z,53.40
2018-07-22T14:10:53.508Z,53.40
2018-07-22T14:13:23.005Z,54.40
2018-07-22T14:15:53.039Z,51.50
2018-07-22T14:18:21.434Z,52.40
2018-07-22T14:23:19.616Z,51.10
2018-07-22T14:25:47.452Z,51.70
2018-07-22T14:28:16.180Z,49.90
2018-07-22T14:30:44.291Z,50.30
2018-07-22T14:33:12.338Z,46.90
2018-07-22T14:35:52.252Z,48.70
2018-07-22T14:38:20.462Z,48.50
2018-07-22T14:40:48.973Z,51.70
2018-07-22T14:43:17.714Z,49.70
2018-07-22T14:45:45.934Z,50.40
2018-07-22T14:48:14.162Z,50.30
2018-07-22T14:50:42.100Z,51.20
2018-07-22T14:53:10.974Z,52.10
2018-07-22T14:55:41.463Z,52.20
2018-07-22T14:58:14.692Z,52.20
2018-07-22T15:00:42.840Z,51.90
2018-07-22T15:03:14.406Z,52.60
2018-07-22T15:05:42.752Z,53.30
2018-07-22T15:08:10.927Z,53.70
2018-07-22T15:10:38.953Z,54.40
2018-07-22T15:13:06.986Z,53.90
2018-07-22T15:15:35.461Z,52.60
2018-07-22T15:18:03.969Z,52.00
2018-07-22T15:20:32.096Z,50.30
2018-07-22T15:23:01.791Z,49.80
2018-07-22T15:25:31.955Z,50.40
2018-07-22T15:27:59.848Z,48.70
2018-07-22T15:30:27.874Z,47.00
2018-07-22T15:32:55.979Z,46.90
2018-07-22T15:35:24.956Z,47.20
2018-07-22T15:37:54.070Z,45.70
2018-07-22T15:40:23.020Z,44.80
2018-07-22T15:42:52.353Z,46.10
2018-07-22T15:45:26.416Z,44.10
2018-07-22T15:47:55.270Z,44.70
2018-07-22T15:50:23.387Z,44.20
2018-07-22T15:52:51.780Z,45.10
2018-07-22T15:55:21.173Z,46.20
2018-07-22T15:57:52.463Z,49.10
2018-07-22T16:00:20.891Z,48.40
2018-07-22T16:02:50.170Z,47.70
2018-07-22T16:05:18.459Z,48.00
2018-07-22T16:07:47.062Z,49.80
2018-07-22T16:10:15.132Z,48.60
2018-07-22T16:12:42.993Z,48.90
2018-07-22T16:15:12.905Z,49.70
2018-07-22T16:17:40.826Z,47.90
2018-07-22T16:20:08.750Z,46.90
2018-07-22T16:22:36.681Z,46.00
2018-07-22T16:25:17.835Z,46.40
2018-07-22T16:27:46.079Z,46.00
2018-07-22T16:30:14.439Z,45.80
2018-07-22T16:32:42.731Z,47.60
2018-07-22T16:35:11.038Z,46.40
2018-07-22T16:37:38.953Z,46.60
2018-07-22T16:40:06.819Z,46.10
2018-07-22T16:42:34.677Z,48.00
2018-07-22T16:45:02.489Z,47.20
2018-07-22T16:47:30.348Z,48.80
2018-07-22T16:49:58.285Z,47.90
2018-07-22T16:52:26.249Z,47.60
2018-07-22T16:54:54.264Z,49.20
2018-07-22T16:57:22.154Z,49.00
2018-07-22T16:59:50.291Z,48.90
2018-07-22T17:02:18.131Z,49.70
2018-07-22T17:04:46.109Z,49.90
2018-07-22T17:07:17.638Z,50.60
2018-07-22T17:09:47.529Z,50.00
2018-07-22T17:12:33.020Z,50.40
2018-07-22T17:15:04.922Z,51.10
2018-07-22T17:17:32.902Z,51.60
2018-07-22T17:22:28.729Z,51.50
2018-07-22T17:24:56.862Z,51.90
2018-07-22T17:27:25.084Z,52.40
2018-07-22T17:29:53.454Z,52.80
2018-07-22T17:32:23.256Z,52.20
2018-07-22T17:34:51.405Z,52.20
2018-07-22T17:37:19.498Z,53.50
2018-07-22T17:39:47.361Z,52.80
2018-07-22T17:42:15.324Z,53.40
2018-07-22T17:44:43.485Z,54.40
2018-07-22T17:47:12.477Z,54.20
2018-07-22T17:49:40.450Z,54.60
2018-07-22T17:52:08.503Z,54.90
2018-07-22T17:54:36.509Z,55.40
2018-07-22T17:57:04.881Z,55.80
2018-07-22T17:59:32.979Z,56.20
2018-07-22T18:02:00.861Z,56.60
2018-07-22T18:04:29.198Z,57.00
2018-07-22T18:06:57.128Z,57.10
2018-07-22T18:09:25.111Z,57.40
2018-07-22T18:11:53.360Z,57.60
2018-07-22T18:14:21.377Z,57.60
2018-07-22T18:16:49.311Z,57.70
2018-07-22T18:19:22.421Z,57.80
2018-07-22T18:21:50.411Z,58.50
2018-07-22T18:24:18.688Z,58.40
2018-07-22T18:26:46.837Z,58.80
2018-07-22T18:29:27.640Z,59.20
2018-07-22T18:31:55.944Z,59.70
2018-07-22T18:34:24.154Z,60.50
2018-07-22T18:36:52.318Z,60.80
2018-07-22T18:39:20.206Z,61.30
2018-07-22T18:41:48.153Z,61.60
2018-07-22T18:44:16.190Z,62.20
2018-07-22T18:46:44.117Z,62.50
2018-07-22T18:49:22.421Z,62.90
2018-07-22T18:51:50.296Z,63.30
2018-07-22T18:54:18.469Z,63.80
2018-07-22T18:56:46.300Z,64.40
2018-07-22T18:59:25.918Z,64.50
2018-07-22T19:01:54.079Z,65.00
2018-07-22T19:04:22.104Z,65.20
2018-07-22T19:06:50.582Z,65.60
2018-07-22T19:09:18.675Z,66.50
2018-07-22T19:14:14.541Z,67.20
2018-07-22T19:16:42.541Z,67.50
2018-07-22T19:19:10.698Z,68.00
2018-07-22T19:21:38.614Z,68.30
2018-07-22T19:24:06.444Z,68.40
2018-07-22T19:26:34.502Z,68.50
2018-07-22T19:29:02.362Z,68.70
2018-07-22T19:31:30.322Z,68.80
2018-07-22T19:33:58.322Z,69.10
2018-07-22T19:36:26.523Z,68.80
2018-07-22T19:38:54.932Z,68.50
2018-07-22T19:41:23.806Z,68.60
2018-07-22T19:43:52.454Z,69.00
2018-07-22T19:46:20.806Z,68.80
2018-07-22T19:48:48.658Z,69.90
2018-07-22T19:51:24.239Z,70.30
2018-07-22T19:53:52.969Z,70.40
2018-07-22T19:56:21.984Z,70.40
2018-07-22T19:59:07.551Z,70.40
2018-07-22T20:01:39.345Z,70.60
2018-07-22T20:04:08.038Z,70.70
2018-07-22T20:06:35.909Z,70.90
2018-07-22T20:09:05.399Z,71.20
2018-07-22T20:11:33.430Z,71.10
2018-07-22T20:14:01.395Z,71.30
2018-07-22T20:16:29.337Z,71.50
2018-07-22T20:18:57.372Z,71.80
2018-07-22T20:22:28.549Z,71.90
2018-07-22T20:24:56.677Z,71.80
2018-07-22T20:27:24.577Z,71.90
2018-07-22T20:29:52.946Z,70.70
2018-07-22T20:32:21.309Z,71.30
2018-07-22T20:34:49.258Z,71.90
2018-07-22T20:37:17.188Z,72.50
2018-07-22T20:42:12.770Z,72.40
2018-07-22T20:44:40.657Z,72.50
2018-07-22T20:47:08.599Z,72.50
2018-07-22T20:49:36.469Z,72.70
2018-07-22T20:52:04.326Z,72.20
2018-07-22T20:54:32.252Z,72.00
2018-07-22T20:57:00.170Z,72.50
2018-07-22T20:59:28.164Z,72.90
2018-07-22T21:01:56.171Z,73.40
2018-07-22T21:04:24.415Z,73.70
2018-07-22T21:06:53.082Z,73.90
2018-07-22T21:09:21.453Z,74.00
2018-07-22T21:13:00.937Z,74.30
2018-07-22T21:15:28.870Z,74.50
2018-07-22T21:18:03.150Z,74.50
2018-07-22T21:22:58.686Z,74.60
2018-07-22T21:25:26.500Z,75.30
2018-07-22T21:27:54.976Z,75.80
2018-07-22T21:30:22.866Z,75.70
2018-07-22T21:32:50.718Z,74.70
2018-07-22T21:35:18.616Z,75.50
2018-07-22T21:37:46.521Z,77.10
2018-07-22T21:40:14.513Z,79.60
2018-07-22T21:42:42.444Z,79.10
2018-07-22T21:45:10.220Z,80.50
2018-07-22T21:47:38.038Z,81.30
2018-07-22T21:50:06.625Z,80.30
2018-07-22T21:52:35.585Z,81.20
2018-07-22T21:55:03.693Z,83.20
2018-07-22T21:57:31.700Z,83.90
2018-07-22T21:59:59.621Z,85.00
2018-07-22T22:02:31.758Z,85.70
2018-07-22T22:05:00.809Z,85.60
2018-07-22T22:07:28.825Z,86.00
2018-07-22T22:09:56.831Z,86.40
2018-07-22T22:12:24.813Z,86.10
2018-07-22T22:14:52.837Z,85.30
2018-07-22T22:17:20.804Z,86.60
2018-07-22T22:19:48.738Z,88.10
2018-07-22T22:22:16.462Z,87.90
2018-07-22T22:24:44.664Z,88.30
2018-07-22T22:27:12.525Z,87.80
2018-07-22T22:29:41.009Z,88.40
2018-07-22T22:32:12.390Z,88.50
2018-07-22T22:34:40.284Z,88.90
2018-07-22T22:37:08.284Z,88.50
2018-07-22T22:39:36.248Z,88.80
2018-07-22T22:42:04.126Z,88.10
2018-07-22T22:44:31.935Z,89.20
2018-07-22T22:47:01.778Z,89.10
2018-07-22T22:49:29.706Z,87.10
2018-07-22T22:51:57.733Z,87.80
2018-07-22T22:54:25.699Z,88.10
2018-07-22T22:56:53.599Z,89.10
2018-07-22T22:59:23.093Z,89.50
2018-07-22T23:01:51.304Z,89.70
2018-07-22T23:04:19.233Z,89.50
2018-07-22T23:06:47.105Z,88.80
2018-07-22T23:09:15.829Z,89.40
2018-07-22T23:11:43.910Z,89.40
2018-07-22T23:14:11.956Z,89.60
2018-07-22T23:16:40.198Z,89.20
2018-07-22T23:19:08.187Z,89.00
2018-07-22T23:21:36.185Z,89.50
2018-07-22T23:24:04.219Z,89.80
2018-07-22T23:26:32.632Z,89.60
2018-07-22T23:29:00.497Z,88.50
2018-07-22T23:31:28.386Z,89.00
2018-07-22T23:33:56.597Z,88.90
2018-07-22T23:36:24.602Z,88.30
2018-07-22T23:38:52.614Z,89.00
2018-07-22T23:41:21.039Z,88.90
2018-07-22T23:43:48.852Z,88.80
2018-07-22T23:46:16.682Z,89.50
2018-07-22T23:48:44.506Z,89.80
2018-07-22T23:53:40.188Z,90.10
2018-07-22T23:56:08.148Z,90.30
2018-07-22T23:58:39.218Z,90.40
